Shokyu Maru — JG5288 — position and weather

sailwx.info

Track history (hours):
 
Tides and Currents Weather Stations Pressure Air Temp Water Temp Dewpoint Dewpoint Depression Visibility Wind Speed Wind Dir Waves Ship Positions

Shokyu Maru

Last reported at 2014-Jul-25 20:32 UTC. Time now 2014-Jul-25 20:44 UTC.
Position N 35°36' E 139°55'.

Length 91 m; draft 5 m.

Type: Tanker. MMSI: 431000253.

Date/timePositionNaut miles runAvg speedWind from/ knotsBaromVisibWave heightAir tempDewpointWater temp
2014-Jul-25 20:32N 35°36' E 139°55'0 0.0
2014-Jul-25 19:23N 35°36' E 139°55'0 0.0
2014-Jul-25 18:32N 35°36' E 139°55'0 0.0
2014-Jul-25 17:32N 35°36' E 139°55'0 0.0
2014-Jul-25 16:29N 35°36' E 139°55'0 0.0
2014-Jul-25 15:32N 35°36' E 139°55'0 0.0
2014-Jul-25 14:32N 35°36' E 139°55'0 0.0
2014-Jul-25 13:29N 35°36' E 139°55'0 0.0
2014-Jul-25 12:32N 35°36' E 139°55'0 0.0
2014-Jul-25 11:32N 35°36' E 139°55'0 0.0
2014-Jul-25 10:32N 35°36' E 139°55'0 0.0
2014-Jul-25 09:29N 35°36' E 139°55'0 0.0
2014-Jul-25 08:26N 35°36' E 139°55'0 0.0
2014-Jul-25 07:32N 35°36' E 139°55'0 0.0
2014-Jul-25 06:33N 35°36' E 139°55'3 2.8
2014-Jul-25 05:33N 35°33' E 139°53'7 6.7
2014-Jul-25 04:31N 35°30' E 139°45'0 0.0
2014-Jul-25 03:31N 35°30' E 139°45'0 0.0
2014-Jul-25 02:31N 35°30' E 139°45'0 0.0
2014-Jul-25 01:31N 35°30' E 139°45'0 0.0
2014-Jul-25 00:31N 35°30' E 139°45'4 3.8
2014-Jul-24 23:33N 35°27' E 139°43'4 3.5
2014-Jul-24 22:32N 35°29' E 139°39'0 0.0
2014-Jul-24 21:32N 35°29' E 139°39'0 0.0
2014-Jul-24 20:32N 35°29' E 139°39'0 0.0
2014-Jul-24 19:32N 35°29' E 139°39'0 0.0
2014-Jul-24 18:32N 35°29' E 139°39'0 0.0
2014-Jul-24 17:32N 35°29' E 139°39'0 0.0
2014-Jul-24 16:32N 35°29' E 139°39'0 0.0
2014-Jul-24 15:32N 35°29' E 139°39'0 0.0
2014-Jul-24 14:32N 35°29' E 139°39'0 0.0
2014-Jul-24 13:32N 35°29' E 139°39'0 0.0
2014-Jul-24 12:32N 35°29' E 139°39'0 0.0
2014-Jul-24 11:32N 35°29' E 139°39'0 0.0
2014-Jul-24 10:32N 35°29' E 139°39'0 0.0
2014-Jul-24 09:32N 35°29' E 139°39'0 0.0
2014-Jul-24 08:32N 35°29' E 139°39'0 0.0
2014-Jul-24 07:32N 35°29' E 139°39'0 0.0
2014-Jul-24 06:32N 35°29' E 139°39'0 0.0
2014-Jul-24 05:32N 35°29' E 139°39'0 0.2
2014-Jul-24 04:34N 35°28' E 139°39'9 8.5
2014-Jul-24 03:34N 35°29' E 139°50'1010.0
2014-Jul-24 02:34N 35°37' E 139°57'4 3.7
2014-Jul-24 01:29N 35°41' E 139°56'0 0.0
2014-Jul-24 00:32N 35°41' E 139°56'0 0.0
2014-Jul-23 23:32N 35°41' E 139°56'0 0.0
2014-Jul-23 22:29N 35°41' E 139°56'2 2.1
2014-Jul-23 21:33N 35°39' E 139°58'4 3.9
2014-Jul-23 20:33N 35°36' E 139°55'0 0.0
2014-Jul-23 19:30N 35°36' E 139°55'0 0.0
2014-Jul-23 18:30N 35°36' E 139°55'0 0.0
2014-Jul-23 17:33N 35°36' E 139°55'0 0.0
2014-Jul-23 16:33N 35°36' E 139°55'0 0.0
2014-Jul-23 15:33N 35°36' E 139°55'0 0.0
2014-Jul-23 14:33N 35°36' E 139°55'0 0.0
2014-Jul-23 13:33N 35°36' E 139°55'0 0.0
2014-Jul-23 12:33N 35°36' E 139°55'0 0.0
2014-Jul-23 11:30N 35°36' E 139°55'0 0.0
2014-Jul-23 10:27N 35°36' E 139°55'4 4.5
2014-Jul-23 09:33N 35°33' E 139°52'6 5.9
2014-Jul-23 08:31N 35°30' E 139°45'0 0.0
2014-Jul-23 07:31N 35°30' E 139°45'0 0.0
2014-Jul-23 06:31N 35°30' E 139°45'0 0.0
2014-Jul-23 05:31N 35°30' E 139°45'0 0.0
2014-Jul-23 04:31N 35°30' E 139°45'3 3.4
2014-Jul-23 03:33N 35°28' E 139°42'7 7.2
2014-Jul-23 02:33N 35°30' E 139°51'10 9.9
2014-Jul-23 01:33N 35°38' E 139°59'3 3.0
2014-Jul-23 00:33N 35°41' E 139°56'0 0.0
2014-Jul-22 23:33N 35°41' E 139°56'0 0.0
2014-Jul-22 22:33N 35°41' E 139°56'2 1.9
2014-Jul-22 21:33N 35°39' E 139°58'4 4.1
2014-Jul-22 20:32N 35°36' E 139°55'0 0.0
2014-Jul-22 19:26N 35°36' E 139°55'0 0.1
2014-Jul-22 18:32N 35°36' E 139°55'0 0.0
2014-Jul-22 17:32N 35°36' E 139°55'0 0.0
2014-Jul-22 16:32N 35°36' E 139°55'0 0.0
2014-Jul-22 15:26N 35°36' E 139°55'0 0.0
2014-Jul-22 14:32N 35°36' E 139°55'0 0.0
2014-Jul-22 13:29N 35°36' E 139°55'0 0.0
2014-Jul-22 12:26N 35°36' E 139°55'0 0.0
2014-Jul-22 11:32N 35°36' E 139°55'0 0.0
2014-Jul-22 10:32N 35°36' E 139°55'0 0.0
2014-Jul-22 09:33N 35°36' E 139°55'7 7.3
2014-Jul-22 08:33N 35°29' E 140°00'1 0.9
2014-Jul-22 07:27N 35°29' E 140°01'0 0.0
2014-Jul-22 06:30N 35°29' E 140°01'0 0.0
2014-Jul-22 05:33N 35°29' E 140°01'0 0.0
2014-Jul-22 04:33N 35°29' E 140°01'0 0.1
2014-Jul-22 03:33N 35°29' E 140°01'8 7.7
2014-Jul-22 02:33N 35°36' E 139°57'5 4.7
2014-Jul-22 01:32N 35°41' E 139°56'0 0.0
2014-Jul-22 00:32N 35°41' E 139°56'0 0.0
2014-Jul-21 23:29N 35°41' E 139°56'0 0.0
2014-Jul-21 22:32N 35°41' E 139°56'2 2.3
2014-Jul-21 21:33N 35°39' E 139°58'4 3.8
2014-Jul-21 20:33N 35°36' E 139°55'0 0.2
2014-Jul-21 20:15N 35°36' E 139°55'0 0.1
2014-Jul-21 19:33N 35°36' E 139°55'0 0.0
2014-Jul-21 18:30N 35°36' E 139°55'0 0.0
2014-Jul-21 17:33N 35°36' E 139°55'0 0.0
2014-Jul-21 16:33N 35°36' E 139°55'0 0.0
2014-Jul-21 15:30N 35°36' E 139°55'0 0.0
2014-Jul-21 14:33N 35°36' E 139°55'0 0.0
2014-Jul-21 13:33N 35°36' E 139°55'0 0.0
2014-Jul-21 12:33N 35°36' E 139°55'0 0.0
2014-Jul-21 11:33N 35°36' E 139°55'4 4.5
2014-Jul-21 10:33N 35°32' E 139°52'1010.3
2014-Jul-21 09:33N 35°25' E 139°43'3 2.8
2014-Jul-21 08:33N 35°24' E 139°40'0 0.0
2014-Jul-21 07:33N 35°24' E 139°40'0 0.0
2014-Jul-21 06:30N 35°24' E 139°40'0 0.0
2014-Jul-21 05:33N 35°24' E 139°40'0 0.0
2014-Jul-21 04:33N 35°24' E 139°40'7 7.4
2014-Jul-21 03:33N 35°28' E 139°48'1110.6
2014-Jul-21 02:33N 35°36' E 139°56'5 4.6
2014-Jul-21 01:31N 35°41' E 139°56'0 0.0
2014-Jul-21 00:31N 35°41' E 139°56'0 0.0
2014-Jul-20 23:31N 35°41' E 139°56'0 0.0
2014-Jul-20 22:31N 35°41' E 139°56'2 2.2
2014-Jul-20 21:33N 35°39' E 139°58'4 3.8
2014-Jul-20 20:29N 35°36' E 139°55'0 0.0
2014-Jul-20 19:32N 35°36' E 139°55'0 0.0
2014-Jul-20 18:29N 35°36' E 139°55'0 0.0
2014-Jul-20 17:32N 35°36' E 139°55'0 0.0
2014-Jul-20 16:32N 35°36' E 139°55'0 0.0
2014-Jul-20 15:23N 35°36' E 139°55'0 0.0
2014-Jul-20 14:32N 35°36' E 139°55'0 0.0
2014-Jul-20 13:32N 35°36' E 139°55'0 0.0
2014-Jul-20 12:32N 35°36' E 139°55'0 0.1
2014-Jul-20 11:26N 35°36' E 139°55'0 0.0
2014-Jul-20 10:26N 35°36' E 139°55'2 2.1
2014-Jul-20 09:34N 35°34' E 139°57'6 6.1
2014-Jul-20 08:33N 35°30' E 140°02'0 0.0
2014-Jul-20 07:33N 35°30' E 140°02'0 0.0
2014-Jul-20 06:33N 35°30' E 140°02'0 0.0
2014-Jul-20 05:33N 35°30' E 140°02'6 6.0
2014-Jul-20 04:33N 35°30' E 139°54'9 9.0
2014-Jul-20 03:33N 35°27' E 139°44'5 4.4
2014-Jul-20 02:32N 35°29' E 139°39'0 0.0
2014-Jul-20 01:32N 35°29' E 139°39'0 0.0
2014-Jul-20 00:32N 35°29' E 139°39'0 0.0
2014-Jul-19 23:32N 35°29' E 139°39'0 0.0
2014-Jul-19 22:32N 35°29' E 139°39'0 0.0
2014-Jul-19 21:32N 35°29' E 139°39'0 0.0
2014-Jul-19 20:32N 35°29' E 139°39'0 0.0
2014-Jul-19 19:32N 35°29' E 139°39'0 0.0
2014-Jul-19 18:32N 35°29' E 139°39'0 0.0
2014-Jul-19 17:32N 35°29' E 139°39'0 0.0
2014-Jul-19 16:32N 35°29' E 139°39'0 0.0
2014-Jul-19 15:32N 35°29' E 139°39'0 0.0
2014-Jul-19 14:32N 35°29' E 139°39'0 0.0
2014-Jul-19 13:32N 35°29' E 139°39'0 0.0
2014-Jul-19 12:32N 35°29' E 139°39'0 0.0
2014-Jul-19 11:32N 35°29' E 139°39'0 0.0
2014-Jul-19 10:32N 35°29' E 139°39'0 0.0
2014-Jul-19 09:32N 35°29' E 139°39'0 0.0
2014-Jul-19 08:32N 35°29' E 139°39'0 0.0
2014-Jul-19 07:32N 35°29' E 139°39'0 0.0
2014-Jul-19 06:32N 35°29' E 139°39'0 0.0
2014-Jul-19 05:32N 35°29' E 139°39'0 0.0
2014-Jul-19 04:32N 35°29' E 139°39'2 2.5
2014-Jul-19 03:33N 35°27' E 139°41'1010.2
2014-Jul-19 02:34N 35°32' E 139°52'9 9.2
2014-Jul-19 01:33N 35°40' E 139°57'1 0.8
2014-Jul-19 00:31N 35°41' E 139°56'0 0.0
2014-Jul-18 23:31N 35°41' E 139°56'0 0.0
2014-Jul-18 22:25N 35°41' E 139°56'3 2.9
2014-Jul-18 21:33N 35°39' E 139°58'4 4.3
2014-Jul-18 20:32N 35°35' E 139°55'0 0.0
2014-Jul-18 19:32N 35°35' E 139°55'0 0.0
2014-Jul-18 18:08N 35°35' E 139°55'0 0.0
2014-Jul-18 17:32N 35°35' E 139°55'0 0.0
2014-Jul-18 16:32N 35°35' E 139°55'0 0.1
2014-Jul-18 15:29N 35°35' E 139°55'0 0.1
2014-Jul-18 14:32N 35°35' E 139°55'0 0.0
2014-Jul-18 13:32N 35°35' E 139°55'0 0.0
2014-Jul-18 12:17N 35°35' E 139°55'0 0.0
2014-Jul-18 11:32N 35°35' E 139°55'0 0.1
2014-Jul-18 10:29N 35°35' E 139°55'0 0.1
2014-Jul-18 09:32N 35°35' E 139°55'0 0.0
2014-Jul-18 08:32N 35°35' E 139°55'0 0.0
2014-Jul-18 07:32N 35°35' E 139°55'4 3.7
2014-Jul-18 06:33N 35°33' E 139°58'4 3.4
2014-Jul-18 05:25N 35°30' E 140°02'0 0.0
2014-Jul-18 04:25N 35°30' E 140°02'0 0.0
2014-Jul-18 03:28N 35°30' E 140°02'0 0.2
2014-Jul-18 02:33N 35°30' E 140°02'9 9.4
2014-Jul-18 01:33N 35°39' E 139°58'2 2.2
2014-Jul-18 00:32N 35°41' E 139°56'0 0.0
2014-Jul-17 23:29N 35°41' E 139°56'0 0.0
2014-Jul-17 22:32N 35°41' E 139°56'2 2.2
2014-Jul-17 21:34N 35°39' E 139°58'4 4.2
2014-Jul-17 20:34N 35°36' E 139°55'0 0.0
2014-Jul-17 19:33N 35°36' E 139°55'0 0.0
2014-Jul-17 18:34N 35°36' E 139°55'0 0.0
2014-Jul-17 17:34N 35°36' E 139°55'0 0.0
2014-Jul-17 16:34N 35°36' E 139°55'0 0.0
2014-Jul-17 15:34N 35°36' E 139°55'0 0.0
2014-Jul-17 14:33N 35°36' E 139°55'0 0.0
2014-Jul-17 13:33N 35°36' E 139°55'2 1.8
2014-Jul-17 12:33N 35°34' E 139°54'7 6.7
2014-Jul-17 11:32N 35°32' E 139°46'0 0.0
2014-Jul-17 10:29N 35°32' E 139°46'0 0.0
2014-Jul-17 09:32N 35°32' E 139°46'0 0.0
2014-Jul-17 08:32N 35°32' E 139°46'0 0.0
2014-Jul-17 07:32N 35°32' E 139°46'5 4.6
2014-Jul-17 06:34N 35°27' E 139°44'1010.3
2014-Jul-17 05:33N 35°34' E 139°54'7 7.0
2014-Jul-17 04:32N 35°41' E 139°56'0 0.0
2014-Jul-17 03:23N 35°41' E 139°56'0 0.0
2014-Jul-17 02:32N 35°41' E 139°56'0 0.0
2014-Jul-17 01:32N 35°41' E 139°56'0 0.0
2014-Jul-17 00:32N 35°41' E 139°56'5 5.0
2014-Jul-16 23:34N 35°36' E 139°55'0 0.1
2014-Jul-16 22:31N 35°36' E 139°55'0 0.0
2014-Jul-16 21:31N 35°36' E 139°55'0 0.0
2014-Jul-16 20:31N 35°36' E 139°55'0 0.1
2014-Jul-16 19:31N 35°36' E 139°55'0 0.1
2014-Jul-16 18:31N 35°36' E 139°55'0 0.0
2014-Jul-16 17:25N 35°36' E 139°55'0 0.0
2014-Jul-16 16:31N 35°36' E 139°55'0 0.0
2014-Jul-16 15:31N 35°36' E 139°55'0 0.0
2014-Jul-16 14:31N 35°36' E 139°55'0 0.0
2014-Jul-16 13:31N 35°36' E 139°55'0 0.0
2014-Jul-16 12:31N 35°36' E 139°55'0 0.0
2014-Jul-16 11:22N 35°36' E 139°55'0 0.0
2014-Jul-16 10:31N 35°36' E 139°55'3 2.8
2014-Jul-16 09:33N 35°34' E 139°53'7 7.1
2014-Jul-16 08:32N 35°30' E 139°45'0 0.0
2014-Jul-16 07:32N 35°30' E 139°45'0 0.0
2014-Jul-16 06:32N 35°30' E 139°45'0 0.0
2014-Jul-16 05:32N 35°30' E 139°45'0 0.0
2014-Jul-16 04:32N 35°30' E 139°45'3 3.4
2014-Jul-16 03:33N 35°27' E 139°43'9 8.8
2014-Jul-16 02:33N 35°32' E 139°53'9 8.9
2014-Jul-16 01:33N 35°40' E 139°57'1 0.8
2014-Jul-16 00:31N 35°41' E 139°56'0 0.0
2014-Jul-15 23:25N 35°41' E 139°56'0 0.0
2014-Jul-15 22:25N 35°41' E 139°56'1 1.1
2014-Jul-15 21:33N 35°40' E 139°57'8 7.5
2014-Jul-15 20:33N 35°33' E 139°53'  
Track history (hours):
 
Tides and Currents Weather Stations Pressure Air Temp Water Temp Dewpoint Dewpoint Depression Visibility Wind Speed Wind Dir Waves Ship Positions

Shokyu Maru

Last reported at 2014-Jul-25 20:32 UTC. Time now 2014-Jul-25 20:44 UTC.
Position N 35°36' E 139°55'.

Length 91 m; draft 5 m.

Type: Tanker. MMSI: 431000253.

Date/timePositionNaut miles runAvg speedWind from/ knotsBaromVisibWave heightAir tempDewpointWater temp
2014-Jul-25 20:32N 35°36' E 139°55'0 0.0
2014-Jul-25 19:23N 35°36' E 139°55'0 0.0
2014-Jul-25 18:32N 35°36' E 139°55'0 0.0
2014-Jul-25 17:32N 35°36' E 139°55'0 0.0
2014-Jul-25 16:29N 35°36' E 139°55'0 0.0
2014-Jul-25 15:32N 35°36' E 139°55'0 0.0
2014-Jul-25 14:32N 35°36' E 139°55'0 0.0
2014-Jul-25 13:29N 35°36' E 139°55'0 0.0
2014-Jul-25 12:32N 35°36' E 139°55'0 0.0
2014-Jul-25 11:32N 35°36' E 139°55'0 0.0
2014-Jul-25 10:32N 35°36' E 139°55'0 0.0
2014-Jul-25 09:29N 35°36' E 139°55'0 0.0
2014-Jul-25 08:26N 35°36' E 139°55'0 0.0
2014-Jul-25 07:32N 35°36' E 139°55'0 0.0
2014-Jul-25 06:33N 35°36' E 139°55'3 2.8
2014-Jul-25 05:33N 35°33' E 139°53'7 6.7
2014-Jul-25 04:31N 35°30' E 139°45'0 0.0
2014-Jul-25 03:31N 35°30' E 139°45'0 0.0
2014-Jul-25 02:31N 35°30' E 139°45'0 0.0
2014-Jul-25 01:31N 35°30' E 139°45'0 0.0
2014-Jul-25 00:31N 35°30' E 139°45'4 3.8
2014-Jul-24 23:33N 35°27' E 139°43'4 3.5
2014-Jul-24 22:32N 35°29' E 139°39'0 0.0
2014-Jul-24 21:32N 35°29' E 139°39'0 0.0
2014-Jul-24 20:32N 35°29' E 139°39'0 0.0
2014-Jul-24 19:32N 35°29' E 139°39'0 0.0
2014-Jul-24 18:32N 35°29' E 139°39'0 0.0
2014-Jul-24 17:32N 35°29' E 139°39'0 0.0
2014-Jul-24 16:32N 35°29' E 139°39'0 0.0
2014-Jul-24 15:32N 35°29' E 139°39'0 0.0
2014-Jul-24 14:32N 35°29' E 139°39'0 0.0
2014-Jul-24 13:32N 35°29' E 139°39'0 0.0
2014-Jul-24 12:32N 35°29' E 139°39'0 0.0
2014-Jul-24 11:32N 35°29' E 139°39'0 0.0
2014-Jul-24 10:32N 35°29' E 139°39'0 0.0
2014-Jul-24 09:32N 35°29' E 139°39'0 0.0
2014-Jul-24 08:32N 35°29' E 139°39'0 0.0
2014-Jul-24 07:32N 35°29' E 139°39'0 0.0
2014-Jul-24 06:32N 35°29' E 139°39'0 0.0
2014-Jul-24 05:32N 35°29' E 139°39'0 0.2
2014-Jul-24 04:34N 35°28' E 139°39'9 8.5
2014-Jul-24 03:34N 35°29' E 139°50'1010.0
2014-Jul-24 02:34N 35°37' E 139°57'4 3.7
2014-Jul-24 01:29N 35°41' E 139°56'0 0.0
2014-Jul-24 00:32N 35°41' E 139°56'0 0.0
2014-Jul-23 23:32N 35°41' E 139°56'0 0.0
2014-Jul-23 22:29N 35°41' E 139°56'2 2.1
2014-Jul-23 21:33N 35°39' E 139°58'4 3.9
2014-Jul-23 20:33N 35°36' E 139°55'0 0.0
2014-Jul-23 19:30N 35°36' E 139°55'0 0.0
2014-Jul-23 18:30N 35°36' E 139°55'0 0.0
2014-Jul-23 17:33N 35°36' E 139°55'0 0.0
2014-Jul-23 16:33N 35°36' E 139°55'0 0.0
2014-Jul-23 15:33N 35°36' E 139°55'0 0.0
2014-Jul-23 14:33N 35°36' E 139°55'0 0.0
2014-Jul-23 13:33N 35°36' E 139°55'0 0.0
2014-Jul-23 12:33N 35°36' E 139°55'0 0.0
2014-Jul-23 11:30N 35°36' E 139°55'0 0.0
2014-Jul-23 10:27N 35°36' E 139°55'4 4.5
2014-Jul-23 09:33N 35°33' E 139°52'6 5.9
2014-Jul-23 08:31N 35°30' E 139°45'0 0.0
2014-Jul-23 07:31N 35°30' E 139°45'0 0.0
2014-Jul-23 06:31N 35°30' E 139°45'0 0.0
2014-Jul-23 05:31N 35°30' E 139°45'0 0.0
2014-Jul-23 04:31N 35°30' E 139°45'3 3.4
2014-Jul-23 03:33N 35°28' E 139°42'7 7.2
2014-Jul-23 02:33N 35°30' E 139°51'10 9.9
2014-Jul-23 01:33N 35°38' E 139°59'3 3.0
2014-Jul-23 00:33N 35°41' E 139°56'0 0.0
2014-Jul-22 23:33N 35°41' E 139°56'0 0.0
2014-Jul-22 22:33N 35°41' E 139°56'2 1.9
2014-Jul-22 21:33N 35°39' E 139°58'4 4.1
2014-Jul-22 20:32N 35°36' E 139°55'0 0.0
2014-Jul-22 19:26N 35°36' E 139°55'0 0.1
2014-Jul-22 18:32N 35°36' E 139°55'0 0.0
2014-Jul-22 17:32N 35°36' E 139°55'0 0.0
2014-Jul-22 16:32N 35°36' E 139°55'0 0.0
2014-Jul-22 15:26N 35°36' E 139°55'0 0.0
2014-Jul-22 14:32N 35°36' E 139°55'0 0.0
2014-Jul-22 13:29N 35°36' E 139°55'0 0.0
2014-Jul-22 12:26N 35°36' E 139°55'0 0.0
2014-Jul-22 11:32N 35°36' E 139°55'0 0.0
2014-Jul-22 10:32N 35°36' E 139°55'0 0.0
2014-Jul-22 09:33N 35°36' E 139°55'7 7.3
2014-Jul-22 08:33N 35°29' E 140°00'1 0.9
2014-Jul-22 07:27N 35°29' E 140°01'0 0.0
2014-Jul-22 06:30N 35°29' E 140°01'0 0.0
2014-Jul-22 05:33N 35°29' E 140°01'0 0.0
2014-Jul-22 04:33N 35°29' E 140°01'0 0.1
2014-Jul-22 03:33N 35°29' E 140°01'8 7.7
2014-Jul-22 02:33N 35°36' E 139°57'5 4.7
2014-Jul-22 01:32N 35°41' E 139°56'0 0.0
2014-Jul-22 00:32N 35°41' E 139°56'0 0.0
2014-Jul-21 23:29N 35°41' E 139°56'0 0.0
2014-Jul-21 22:32N 35°41' E 139°56'2 2.3
2014-Jul-21 21:33N 35°39' E 139°58'4 3.8
2014-Jul-21 20:33N 35°36' E 139°55'0 0.2
2014-Jul-21 20:15N 35°36' E 139°55'0 0.1
2014-Jul-21 19:33N 35°36' E 139°55'0 0.0
2014-Jul-21 18:30N 35°36' E 139°55'0 0.0
2014-Jul-21 17:33N 35°36' E 139°55'0 0.0
2014-Jul-21 16:33N 35°36' E 139°55'0 0.0
2014-Jul-21 15:30N 35°36' E 139°55'0 0.0
2014-Jul-21 14:33N 35°36' E 139°55'0 0.0
2014-Jul-21 13:33N 35°36' E 139°55'0 0.0
2014-Jul-21 12:33N 35°36' E 139°55'0 0.0
2014-Jul-21 11:33N 35°36' E 139°55'4 4.5
2014-Jul-21 10:33N 35°32' E 139°52'1010.3
2014-Jul-21 09:33N 35°25' E 139°43'3 2.8
2014-Jul-21 08:33N 35°24' E 139°40'0 0.0
2014-Jul-21 07:33N 35°24' E 139°40'0 0.0
2014-Jul-21 06:30N 35°24' E 139°40'0 0.0
2014-Jul-21 05:33N 35°24' E 139°40'0 0.0
2014-Jul-21 04:33N 35°24' E 139°40'7 7.4
2014-Jul-21 03:33N 35°28' E 139°48'1110.6
2014-Jul-21 02:33N 35°36' E 139°56'5 4.6
2014-Jul-21 01:31N 35°41' E 139°56'0 0.0
2014-Jul-21 00:31N 35°41' E 139°56'0 0.0
2014-Jul-20 23:31N 35°41' E 139°56'0 0.0
2014-Jul-20 22:31N 35°41' E 139°56'2 2.2
2014-Jul-20 21:33N 35°39' E 139°58'4 3.8
2014-Jul-20 20:29N 35°36' E 139°55'0 0.0
2014-Jul-20 19:32N 35°36' E 139°55'0 0.0
2014-Jul-20 18:29N 35°36' E 139°55'0 0.0
2014-Jul-20 17:32N 35°36' E 139°55'0 0.0
2014-Jul-20 16:32N 35°36' E 139°55'0 0.0
2014-Jul-20 15:23N 35°36' E 139°55'0 0.0
2014-Jul-20 14:32N 35°36' E 139°55'0 0.0
2014-Jul-20 13:32N 35°36' E 139°55'0 0.0
2014-Jul-20 12:32N 35°36' E 139°55'0 0.1
2014-Jul-20 11:26N 35°36' E 139°55'0 0.0
2014-Jul-20 10:26N 35°36' E 139°55'2 2.1
2014-Jul-20 09:34N 35°34' E 139°57'6 6.1
2014-Jul-20 08:33N 35°30' E 140°02'0 0.0
2014-Jul-20 07:33N 35°30' E 140°02'0 0.0
2014-Jul-20 06:33N 35°30' E 140°02'0 0.0
2014-Jul-20 05:33N 35°30' E 140°02'6 6.0
2014-Jul-20 04:33N 35°30' E 139°54'9 9.0
2014-Jul-20 03:33N 35°27' E 139°44'5 4.4
2014-Jul-20 02:32N 35°29' E 139°39'0 0.0
2014-Jul-20 01:32N 35°29' E 139°39'0 0.0
2014-Jul-20 00:32N 35°29' E 139°39'0 0.0
2014-Jul-19 23:32N 35°29' E 139°39'0 0.0
2014-Jul-19 22:32N 35°29' E 139°39'0 0.0
2014-Jul-19 21:32N 35°29' E 139°39'0 0.0
2014-Jul-19 20:32N 35°29' E 139°39'0 0.0
2014-Jul-19 19:32N 35°29' E 139°39'0 0.0
2014-Jul-19 18:32N 35°29' E 139°39'0 0.0
2014-Jul-19 17:32N 35°29' E 139°39'0 0.0
2014-Jul-19 16:32N 35°29' E 139°39'0 0.0
2014-Jul-19 15:32N 35°29' E 139°39'0 0.0
2014-Jul-19 14:32N 35°29' E 139°39'0 0.0
2014-Jul-19 13:32N 35°29' E 139°39'0 0.0
2014-Jul-19 12:32N 35°29' E 139°39'0 0.0
2014-Jul-19 11:32N 35°29' E 139°39'0 0.0
2014-Jul-19 10:32N 35°29' E 139°39'0 0.0
2014-Jul-19 09:32N 35°29' E 139°39'0 0.0
2014-Jul-19 08:32N 35°29' E 139°39'0 0.0
2014-Jul-19 07:32N 35°29' E 139°39'0 0.0
2014-Jul-19 06:32N 35°29' E 139°39'0 0.0
2014-Jul-19 05:32N 35°29' E 139°39'0 0.0
2014-Jul-19 04:32N 35°29' E 139°39'2 2.5
2014-Jul-19 03:33N 35°27' E 139°41'1010.2
2014-Jul-19 02:34N 35°32' E 139°52'9 9.2
2014-Jul-19 01:33N 35°40' E 139°57'1 0.8
2014-Jul-19 00:31N 35°41' E 139°56'0 0.0
2014-Jul-18 23:31N 35°41' E 139°56'0 0.0
2014-Jul-18 22:25N 35°41' E 139°56'3 2.9
2014-Jul-18 21:33N 35°39' E 139°58'4 4.3
2014-Jul-18 20:32N 35°35' E 139°55'0 0.0
2014-Jul-18 19:32N 35°35' E 139°55'0 0.0
2014-Jul-18 18:08N 35°35' E 139°55'0 0.0
2014-Jul-18 17:32N 35°35' E 139°55'0 0.0
2014-Jul-18 16:32N 35°35' E 139°55'0 0.1
2014-Jul-18 15:29N 35°35' E 139°55'0 0.1
2014-Jul-18 14:32N 35°35' E 139°55'0 0.0
2014-Jul-18 13:32N 35°35' E 139°55'0 0.0
2014-Jul-18 12:17N 35°35' E 139°55'0 0.0
2014-Jul-18 11:32N 35°35' E 139°55'0 0.1
2014-Jul-18 10:29N 35°35' E 139°55'0 0.1
2014-Jul-18 09:32N 35°35' E 139°55'0 0.0
2014-Jul-18 08:32N 35°35' E 139°55'0 0.0
2014-Jul-18 07:32N 35°35' E 139°55'4 3.7
2014-Jul-18 06:33N 35°33' E 139°58'4 3.4
2014-Jul-18 05:25N 35°30' E 140°02'0 0.0
2014-Jul-18 04:25N 35°30' E 140°02'0 0.0
2014-Jul-18 03:28N 35°30' E 140°02'0 0.2
2014-Jul-18 02:33N 35°30' E 140°02'9 9.4
2014-Jul-18 01:33N 35°39' E 139°58'2 2.2
2014-Jul-18 00:32N 35°41' E 139°56'0 0.0
2014-Jul-17 23:29N 35°41' E 139°56'0 0.0
2014-Jul-17 22:32N 35°41' E 139°56'2 2.2
2014-Jul-17 21:34N 35°39' E 139°58'4 4.2
2014-Jul-17 20:34N 35°36' E 139°55'0 0.0
2014-Jul-17 19:33N 35°36' E 139°55'0 0.0
2014-Jul-17 18:34N 35°36' E 139°55'0 0.0
2014-Jul-17 17:34N 35°36' E 139°55'0 0.0
2014-Jul-17 16:34N 35°36' E 139°55'0 0.0
2014-Jul-17 15:34N 35°36' E 139°55'0 0.0
2014-Jul-17 14:33N 35°36' E 139°55'0 0.0
2014-Jul-17 13:33N 35°36' E 139°55'2 1.8
2014-Jul-17 12:33N 35°34' E 139°54'7 6.7
2014-Jul-17 11:32N 35°32' E 139°46'0 0.0
2014-Jul-17 10:29N 35°32' E 139°46'0 0.0
2014-Jul-17 09:32N 35°32' E 139°46'0 0.0
2014-Jul-17 08:32N 35°32' E 139°46'0 0.0
2014-Jul-17 07:32N 35°32' E 139°46'5 4.6
2014-Jul-17 06:34N 35°27' E 139°44'1010.3
2014-Jul-17 05:33N 35°34' E 139°54'7 7.0
2014-Jul-17 04:32N 35°41' E 139°56'0 0.0
2014-Jul-17 03:23N 35°41' E 139°56'0 0.0
2014-Jul-17 02:32N 35°41' E 139°56'0 0.0
2014-Jul-17 01:32N 35°41' E 139°56'0 0.0
2014-Jul-17 00:32N 35°41' E 139°56'5 5.0
2014-Jul-16 23:34N 35°36' E 139°55'0 0.1
2014-Jul-16 22:31N 35°36' E 139°55'0 0.0
2014-Jul-16 21:31N 35°36' E 139°55'0 0.0
2014-Jul-16 20:31N 35°36' E 139°55'0 0.1
2014-Jul-16 19:31N 35°36' E 139°55'0 0.1
2014-Jul-16 18:31N 35°36' E 139°55'0 0.0
2014-Jul-16 17:25N 35°36' E 139°55'0 0.0
2014-Jul-16 16:31N 35°36' E 139°55'0 0.0
2014-Jul-16 15:31N 35°36' E 139°55'0 0.0
2014-Jul-16 14:31N 35°36' E 139°55'0 0.0
2014-Jul-16 13:31N 35°36' E 139°55'0 0.0
2014-Jul-16 12:31N 35°36' E 139°55'0 0.0
2014-Jul-16 11:22N 35°36' E 139°55'0 0.0
2014-Jul-16 10:31N 35°36' E 139°55'3 2.8
2014-Jul-16 09:33N 35°34' E 139°53'7 7.1
2014-Jul-16 08:32N 35°30' E 139°45'0 0.0
2014-Jul-16 07:32N 35°30' E 139°45'0 0.0
2014-Jul-16 06:32N 35°30' E 139°45'0 0.0
2014-Jul-16 05:32N 35°30' E 139°45'0 0.0
2014-Jul-16 04:32N 35°30' E 139°45'3 3.4
2014-Jul-16 03:33N 35°27' E 139°43'9 8.8
2014-Jul-16 02:33N 35°32' E 139°53'9 8.9
2014-Jul-16 01:33N 35°40' E 139°57'1 0.8
2014-Jul-16 00:31N 35°41' E 139°56'0 0.0
2014-Jul-15 23:25N 35°41' E 139°56'0 0.0
2014-Jul-15 22:25N 35°41' E 139°56'1 1.1
2014-Jul-15 21:33N 35°40' E 139°57'8 7.5
2014-Jul-15 20:33N 35°33' E 139°53'  

Dump ship's entire track history